Time,TemperatureF,DewpointF,PressureIn,WindDirection,WindDirectionDegrees,WindSpeedMPH,WindSpeedGustMPH,Humidity,HourlyPrecipIn,Conditions,Clouds,dailyrainin,SoftwareType,DateUTC
2013-02-02 00:01:00,52.0,48.0,30.17,WNW,301,0.0,1.0,86,0.00,,,0.00,,2013-02-02 08:01:00,
2013-02-02 00:21:00,52.0,48.0,30.17,WNW,302,0.0,3.0,86,0.00,,,0.00,,2013-02-02 08:21:00,
2013-02-02 00:32:00,52.0,48.0,30.17,WNW,302,0.0,3.0,86,0.00,,,0.00,,2013-02-02 08:32:00,
2013-02-02 00:42:00,52.0,48.0,30.17,WNW,302,0.0,3.0,86,0.00,,,0.00,,2013-02-02 08:42:00,
2013-02-02 00:52:00,52.0,48.0,30.17,WNW,302,0.0,3.0,86,0.00,,,0.00,,2013-02-02 08:52:00,
2013-02-02 01:01:00,52.0,48.0,30.17,WNW,302,0.0,3.0,86,0.00,,,0.00,,2013-02-02 09:01:00,
2013-02-02 01:22:00,51.0,46.0,30.16,WNW,302,2.0,4.0,82,0.00,,,0.00,,2013-02-02 09:22:00,
2013-02-02 01:32:00,51.0,46.0,30.16,WNW,302,2.0,4.0,82,0.00,,,0.00,,2013-02-02 09:32:00,
2013-02-02 01:42:00,51.0,46.0,30.16,WNW,302,2.0,4.0,82,0.00,,,0.00,,2013-02-02 09:42:00,
2013-02-02 01:52:00,52.0,46.0,30.15,NNE,15,4.0,5.0,79,0.00,,,0.00,,2013-02-02 09:52:00,
2013-02-02 02:01:00,52.0,46.0,30.15,NNE,15,4.0,5.0,79,0.00,,,0.00,,2013-02-02 10:01:00,
2013-02-02 02:11:00,52.0,46.0,30.15,NNE,15,4.0,5.0,79,0.00,,,0.00,,2013-02-02 10:11:00,
2013-02-02 02:21:00,53.0,44.0,30.16,NNE,15,1.0,5.0,72,0.00,,,0.00,,2013-02-02 10:21:00,
2013-02-02 02:31:00,53.0,44.0,30.16,NNE,15,1.0,5.0,72,0.00,,,0.00,,2013-02-02 10:31:00,
2013-02-02 02:42:00,53.0,44.0,30.16,NNE,15,1.0,5.0,72,0.00,,,0.00,,2013-02-02 10:42:00,
2013-02-02 02:52:00,53.0,44.0,30.16,NNE,15,1.0,5.0,72,0.00,,,0.00,,2013-02-02 10:52:00,
2013-02-02 03:01:00,53.0,44.0,30.16,NNE,15,1.0,5.0,72,0.00,,,0.00,,2013-02-02 11:01:00,
2013-02-02 03:22:00,54.0,44.0,30.16,South,178,1.0,9.0,69,0.00,,,0.00,,2013-02-02 11:22:00,
2013-02-02 03:32:00,54.0,44.0,30.16,South,178,1.0,9.0,69,0.00,,,0.00,,2013-02-02 11:32:00,
2013-02-02 03:42:00,54.0,44.0,30.16,South,178,1.0,9.0,69,0.00,,,0.00,,2013-02-02 11:42:00,
2013-02-02 03:52:00,54.0,44.0,30.15,NNE,15,6.0,9.0,68,0.00,,,0.00,,2013-02-02 11:52:00,
2013-02-02 04:01:00,54.0,44.0,30.15,NNE,15,6.0,9.0,68,0.00,,,0.00,,2013-02-02 12:01:00,
2013-02-02 04:11:00,54.0,44.0,30.15,NNE,15,6.0,9.0,68,0.00,,,0.00,,2013-02-02 12:11:00,
2013-02-02 04:22:00,54.0,43.0,30.16,SSE,164,3.0,4.0,67,0.00,,,0.00,,2013-02-02 12:22:00,
2013-02-02 04:32:00,54.0,43.0,30.16,SSE,164,3.0,4.0,67,0.00,,,0.00,,2013-02-02 12:32:00,
2013-02-02 04:42:00,54.0,43.0,30.16,SSE,164,3.0,4.0,67,0.00,,,0.00,,2013-02-02 12:42:00,
2013-02-02 04:52:00,53.0,46.0,30.16,SSE,165,4.0,5.0,77,0.00,,,0.00,,2013-02-02 12:52:00,
2013-02-02 05:02:00,53.0,46.0,30.16,SSE,165,4.0,5.0,77,0.00,,,0.00,,2013-02-02 13:02:00,
2013-02-02 05:11:00,53.0,46.0,30.16,SSE,165,4.0,5.0,77,0.00,,,0.00,,2013-02-02 13:11:00,
2013-02-02 05:21:00,53.0,46.0,30.16,SSE,165,4.0,5.0,77,0.00,,,0.00,,2013-02-02 13:21:00,
2013-02-02 05:32:00,53.0,46.0,30.16,SSE,165,4.0,5.0,77,0.00,,,0.00,,2013-02-02 13:32:00,
2013-02-02 05:52:00,53.0,46.0,30.16,NNE,27,6.0,7.0,77,0.00,,,0.00,,2013-02-02 13:52:00,
2013-02-02 06:02:00,53.0,46.0,30.16,NNE,27,6.0,7.0,77,0.00,,,0.00,,2013-02-02 14:02:00,
2013-02-02 06:11:00,53.0,46.0,30.16,NNE,27,6.0,7.0,77,0.00,,,0.00,,2013-02-02 14:11:00,
2013-02-02 06:22:00,53.0,45.0,30.16,NNE,28,4.0,6.0,75,0.00,,,0.00,,2013-02-02 14:22:00,
2013-02-02 06:31:00,53.0,45.0,30.16,NNE,28,4.0,6.0,75,0.00,,,0.00,,2013-02-02 14:31:00,
2013-02-02 06:42:00,53.0,45.0,30.16,NNE,28,4.0,6.0,75,0.00,,,0.00,,2013-02-02 14:42:00,
2013-02-02 06:52:00,54.0,44.0,30.16,NNE,23,7.0,10.0,68,0.00,,,0.00,,2013-02-02 14:52:00,
2013-02-02 07:02:00,54.0,44.0,30.16,NNE,23,7.0,10.0,68,0.00,,,0.00,,2013-02-02 15:02:00,
2013-02-02 07:12:00,54.0,44.0,30.16,NNE,23,7.0,10.0,68,0.00,,,0.00,,2013-02-02 15:12:00,
2013-02-02 07:21:00,54.0,44.0,30.16,NNE,23,7.0,10.0,68,0.00,,,0.00,,2013-02-02 15:21:00,
2013-02-02 07:32:00,54.0,44.0,30.16,NNE,23,7.0,10.0,68,0.00,,,0.00,,2013-02-02 15:32:00,
2013-02-02 08:23:00,58.0,42.0,30.18,NNW,329,6.0,6.0,55,0.00,,,0.00,,2013-02-02 16:23:00,
2013-02-02 08:32:00,58.0,42.0,30.18,NNW,329,6.0,6.0,55,0.00,,,0.00,,2013-02-02 16:32:00,
2013-02-02 08:42:00,58.0,42.0,30.18,NNW,329,6.0,6.0,55,0.00,,,0.00,,2013-02-02 16:42:00,
2013-02-02 08:52:00,59.0,42.0,30.18,NNW,340,3.0,6.0,53,0.00,,,0.00,,2013-02-02 16:52:00,
2013-02-02 09:01:00,59.0,42.0,30.18,NNW,340,3.0,6.0,53,0.00,,,0.00,,2013-02-02 17:01:00,
2013-02-02 09:11:00,59.0,42.0,30.18,NNW,340,3.0,6.0,53,0.00,,,0.00,,2013-02-02 17:11:00,
2013-02-02 09:21:00,61.0,43.0,30.19,NNW,344,2.0,4.0,52,0.00,,,0.00,,2013-02-02 17:21:00,
2013-02-02 09:31:00,61.0,43.0,30.19,NNW,344,2.0,4.0,52,0.00,,,0.00,,2013-02-02 17:31:00,
2013-02-02 09:42:00,61.0,43.0,30.19,NNW,344,2.0,4.0,52,0.00,,,0.00,,2013-02-02 17:42:00,
2013-02-02 09:52:00,61.0,43.0,30.19,NNW,344,2.0,4.0,52,0.00,,,0.00,,2013-02-02 17:52:00,
2013-02-02 10:01:00,61.0,43.0,30.19,NNW,344,2.0,4.0,52,0.00,,,0.00,,2013-02-02 18:01:00,
2013-02-02 13:52:00,68.0,43.0,30.12,WNW,298,5.0,10.0,41,0.00,,,0.00,,2013-02-02 21:52:00,
2013-02-02 14:02:00,68.0,43.0,30.12,WNW,298,5.0,10.0,41,0.00,,,0.00,,2013-02-02 22:02:00,
2013-02-02 14:11:00,68.0,43.0,30.12,WNW,298,5.0,10.0,41,0.00,,,0.00,,2013-02-02 22:11:00,
2013-02-02 14:21:00,69.0,42.0,30.11,West,271,1.0,5.0,38,0.00,,,0.00,,2013-02-02 22:21:00,
2013-02-02 14:32:00,69.0,42.0,30.11,West,271,1.0,5.0,38,0.00,,,0.00,,2013-02-02 22:32:00,
2013-02-02 14:42:00,69.0,42.0,30.11,West,271,1.0,5.0,38,0.00,,,0.00,,2013-02-02 22:42:00,
2013-02-02 14:52:00,68.0,48.0,30.12,NW,321,2.0,9.0,48,0.00,,,0.00,,2013-02-02 22:52:00,
2013-02-02 15:01:00,68.0,48.0,30.12,NW,321,2.0,9.0,48,0.00,,,0.00,,2013-02-02 23:01:00,
2013-02-02 15:11:00,68.0,48.0,30.12,NW,321,2.0,9.0,48,0.00,,,0.00,,2013-02-02 23:11:00,
2013-02-02 15:21:00,68.0,48.0,30.12,NW,321,2.0,9.0,48,0.00,,,0.00,,2013-02-02 23:21:00,
2013-02-02 15:32:00,68.0,48.0,30.12,NW,321,2.0,9.0,48,0.00,,,0.00,,2013-02-02 23:32:00,
2013-02-02 16:22:00,65.0,48.0,30.14,West,267,4.0,6.0,55,0.00,,,0.00,,2013-02-03 00:22:00,
2013-02-02 16:32:00,65.0,48.0,30.14,West,267,4.0,6.0,55,0.00,,,0.00,,2013-02-03 00:32:00,
2013-02-02 16:42:00,65.0,48.0,30.14,West,267,4.0,6.0,55,0.00,,,0.00,,2013-02-03 00:42:00,
2013-02-02 16:52:00,64.0,48.0,30.14,SSW,198,0.0,4.0,57,0.00,,,0.00,,2013-02-03 00:52:00,
2013-02-02 17:01:00,64.0,48.0,30.14,SSW,198,0.0,4.0,57,0.00,,,0.00,,2013-02-03 01:01:00,
2013-02-02 17:11:00,64.0,48.0,30.14,SSW,198,0.0,4.0,57,0.00,,,0.00,,2013-02-03 01:11:00,
2013-02-02 17:21:00,64.0,48.0,30.14,SSW,198,0.0,4.0,57,0.00,,,0.00,,2013-02-03 01:21:00,
2013-02-02 17:32:00,64.0,48.0,30.14,SSW,198,0.0,4.0,57,0.00,,,0.00,,2013-02-03 01:32:00,
2013-02-02 18:21:00,65.0,47.0,30.16,NNE,15,8.0,12.0,52,0.00,,,0.00,,2013-02-03 02:21:00,
2013-02-02 18:32:00,65.0,47.0,30.16,NNE,15,8.0,12.0,52,0.00,,,0.00,,2013-02-03 02:32:00,
2013-02-02 18:42:00,65.0,47.0,30.16,NNE,15,8.0,12.0,52,0.00,,,0.00,,2013-02-03 02:42:00,
2013-02-02 18:52:00,65.0,47.0,30.16,NNE,15,8.0,12.0,52,0.00,,,0.00,,2013-02-03 02:52:00,
2013-02-02 19:01:00,65.0,47.0,30.16,NNE,15,8.0,12.0,52,0.00,,,0.00,,2013-02-03 03:01:00,
2013-02-02 19:11:00,65.0,49.0,30.17,North,360,8.0,10.0,56,0.00,,,0.00,,2013-02-03 03:11:00,
2013-02-02 19:22:00,65.0,49.0,30.17,North,360,8.0,10.0,56,0.00,,,0.00,,2013-02-03 03:22:00,
2013-02-02 19:32:00,65.0,49.0,30.17,North,360,8.0,10.0,56,0.00,,,0.00,,2013-02-03 03:32:00,
2013-02-02 19:42:00,65.0,49.0,30.17,North,360,8.0,10.0,56,0.00,,,0.00,,2013-02-03 03:42:00,
2013-02-02 19:52:00,65.0,49.0,30.17,North,360,8.0,10.0,56,0.00,,,0.00,,2013-02-03 03:52:00,
2013-02-02 20:01:00,65.0,49.0,30.17,North,360,8.0,10.0,56,0.00,,,0.00,,2013-02-03 04:01:00,
2013-02-02 20:22:00,62.0,50.0,30.17,NNE,29,4.0,7.0,65,0.00,,,0.00,,2013-02-03 04:22:00,
2013-02-02 20:32:00,62.0,50.0,30.17,NNE,29,4.0,7.0,65,0.00,,,0.00,,2013-02-03 04:32:00,
2013-02-02 20:42:00,62.0,50.0,30.17,NNE,29,4.0,7.0,65,0.00,,,0.00,,2013-02-03 04:42:00,
2013-02-02 20:52:00,62.0,50.0,30.17,NNE,29,4.0,7.0,65,0.00,,,0.00,,2013-02-03 04:52:00,
2013-02-02 21:22:00,61.0,50.0,30.17,NE,34,0.0,4.0,68,0.00,,,0.00,,2013-02-03 05:22:00,
2013-02-02 21:32:00,61.0,50.0,30.17,NE,34,0.0,4.0,68,0.00,,,0.00,,2013-02-03 05:32:00,
2013-02-02 21:42:00,61.0,50.0,30.17,NE,34,0.0,4.0,68,0.00,,,0.00,,2013-02-03 05:42:00,
2013-02-02 21:52:00,61.0,49.0,30.16,NE,34,2.0,4.0,65,0.00,,,0.00,,2013-02-03 05:52:00,
2013-02-02 22:02:00,61.0,49.0,30.16,NE,34,2.0,4.0,65,0.00,,,0.00,,2013-02-03 06:02:00,
2013-02-02 22:11:00,61.0,49.0,30.16,NE,34,2.0,4.0,65,0.00,,,0.00,,2013-02-03 06:11:00,
2013-02-02 22:21:00,61.0,49.0,30.16,NE,34,2.0,4.0,65,0.00,,,0.00,,2013-02-03 06:21:00,
2013-02-02 22:31:00,61.0,49.0,30.16,NE,34,2.0,4.0,65,0.00,,,0.00,,2013-02-03 06:31:00,
2013-02-02 22:52:00,61.0,48.0,30.16,NNE,33,2.0,5.0,62,0.00,,,0.00,,2013-02-03 06:52:00,
2013-02-02 23:01:00,61.0,48.0,30.16,NNE,33,2.0,5.0,62,0.00,,,0.00,,2013-02-03 07:01:00,
2013-02-02 23:11:00,61.0,48.0,30.16,NNE,33,2.0,5.0,62,0.00,,,0.00,,2013-02-03 07:11:00,
2013-02-02 23:21:00,61.0,48.0,30.16,NNE,33,2.0,5.0,62,0.00,,,0.00,,2013-02-03 07:21:00,
2013-02-02 23:31:00,61.0,48.0,30.16,NNE,33,2.0,5.0,62,0.00,,,0.00,,2013-02-03 07:31:00,